Archiv-/Tagesdaten

--Timestamp---	Temp	Chill	HIndex	Humid	Dewpt	 Wind 	HiWind	WindDir	Rain 	Barom	Solar	 ET  	 UV 
--------------	----	-----	------	-----	-----	------	------	-------	-----	-----	-----	-----	----
20100216 00:00	-6.4	-6.4	-6.4	82	-9.0	2	5	135	0.0	1009.0	0	0.000	0.0
20100216 00:05	-6.4	-6.4	-6.4	82	-9.0	2	6	135	0.0	1008.9	0	0.000	0.0
20100216 00:10	-6.4	-6.4	-6.4	82	-9.0	2	6	158	0.0	1008.9	0	0.000	0.0
20100216 00:15	-6.4	-6.4	-6.4	82	-9.0	2	6	158	0.0	1008.8	0	0.000	0.0
20100216 00:20	-6.4	-6.4	-6.4	82	-9.0	2	5	158	0.0	1009.0	0	0.000	0.0
20100216 00:25	-6.4	-6.4	-6.4	82	-9.0	2	5	158	0.0	1009.0	0	0.000	0.0
20100216 00:30	-6.4	-6.4	-6.4	82	-8.9	2	5	158	0.0	1008.8	0	0.000	0.0
20100216 00:35	-6.4	-6.4	-6.4	82	-8.9	3	8	158	0.0	1008.8	0	0.000	0.0
20100216 00:40	-6.4	-6.4	-6.4	82	-8.9	3	10	180	0.0	1008.7	0	0.000	0.0
20100216 00:45	-6.4	-6.4	-6.4	83	-8.8	2	5	180	0.0	1008.7	0	0.000	0.0
20100216 00:50	-6.4	-6.4	-6.4	82	-8.9	2	5	180	0.0	1008.6	0	0.000	0.0
20100216 00:55	-6.4	-6.4	-6.4	83	-8.8	2	5	180	0.0	1008.6	0	0.000	0.0
20100216 01:00	-6.4	-6.4	-6.4	83	-8.8	2	3	180	0.0	1008.6	0	0.000	0.0
20100216 01:05	-6.3	-6.3	-6.3	83	-8.7	3	8	180	0.0	1008.6	0	0.000	0.0
20100216 01:10	-6.3	-6.3	-6.3	83	-8.7	2	6	180	0.0	1008.6	0	0.000	0.0
20100216 01:15	-6.3	-6.3	-6.3	83	-8.7	0	3	180	0.0	1008.5	0	0.000	0.0
20100216 01:20	-6.3	-6.3	-6.3	83	-8.7	0	3	180	0.0	1008.5	0	0.000	0.0
20100216 01:25	-6.3	-6.3	-6.3	83	-8.7	2	5	180	0.0	1008.5	0	0.000	0.0
20100216 01:30	-6.3	-6.3	-6.3	83	-8.7	2	3	180	0.0	1008.4	0	0.000	0.0
20100216 01:35	-6.3	-6.3	-6.3	83	-8.7	2	6	180	0.0	1008.4	0	0.000	0.0
20100216 01:40	-6.3	-6.3	-6.3	83	-8.7	3	6	180	0.0	1008.4	0	0.000	0.0
20100216 01:45	-6.3	-6.3	-6.3	83	-8.7	2	8	180	0.0	1008.3	0	0.000	0.0
20100216 01:50	-6.3	-6.3	-6.3	83	-8.7	5	10	180	0.0	1008.3	0	0.000	0.0
20100216 01:55	-6.4	-6.4	-6.4	83	-8.8	3	8	180	0.0	1008.3	0	0.000	0.0
20100216 02:00	-6.4	-6.4	-6.4	83	-8.8	3	8	180	0.0	1008.3	0	0.000	0.0
20100216 02:05	-6.4	-6.4	-6.4	83	-8.8	2	6	180	0.0	1008.3	0	0.000	0.0
20100216 02:10	-6.4	-6.4	-6.4	83	-8.8	0	3	180	0.0	1008.3	0	0.000	0.0
20100216 02:15	-6.4	-6.4	-6.4	83	-8.8	0	2	180	0.0	1008.3	0	0.000	0.0
20100216 02:20	-6.4	-6.4	-6.4	83	-8.8	0	0	-100000	0.0	1008.3	0	0.000	0.0
20100216 02:25	-6.4	-6.4	-6.4	83	-8.8	0	0	-100000	0.0	1008.4	0	0.000	0.0
20100216 02:30	-6.4	-6.4	-6.4	83	-8.8	0	3	180	0.0	1008.3	0	0.000	0.0
20100216 02:35	-6.5	-6.5	-6.5	83	-8.9	0	3	180	0.0	1008.2	0	0.000	0.0
20100216 02:40	-6.6	-6.6	-6.6	83	-9.0	2	5	180	0.0	1008.1	0	0.000	0.0
20100216 02:45	-6.7	-6.7	-6.7	83	-9.1	3	6	180	0.0	1008.0	0	0.000	0.0
20100216 02:50	-6.8	-6.8	-6.8	83	-9.2	2	5	180	0.0	1008.1	0	0.000	0.0
20100216 02:55	-6.9	-6.9	-6.9	84	-9.2	2	3	180	0.0	1008.0	0	0.000	0.0
20100216 03:00	-7.1	-7.1	-7.1	84	-9.3	2	3	180	0.0	1008.1	0	0.000	0.0
20100216 03:05	-7.2	-7.2	-7.2	84	-9.4	0	3	180	0.0	1008.0	0	0.000	0.0
20100216 03:10	-7.3	-7.3	-7.3	84	-9.5	0	3	180	0.0	1008.0	0	0.000	0.0
20100216 03:15	-7.4	-7.4	-7.4	84	-9.6	2	3	180	0.0	1008.0	0	0.000	0.0
20100216 03:20	-7.5	-7.5	-7.5	85	-9.6	2	3	180	0.0	1007.9	0	0.000	0.0
20100216 03:25	-7.7	-7.7	-7.7	84	-9.9	2	3	180	0.0	1007.9	0	0.000	0.0
20100216 03:30	-7.8	-7.8	-7.8	84	-10.1	0	2	180	0.0	1007.9	0	0.000	0.0
20100216 03:35	-7.9	-7.9	-7.9	85	-10.0	3	6	180	0.0	1007.8	0	0.000	0.0
20100216 03:40	-8.0	-8.0	-8.0	86	-9.9	3	5	180	0.0	1007.8	0	0.000	0.0
20100216 03:45	-8.2	-8.2	-8.2	86	-10.1	3	5	180	0.0	1007.9	0	0.000	0.0
20100216 03:50	-8.2	-8.2	-8.2	86	-10.1	2	5	180	0.0	1007.9	0	0.000	0.0
20100216 03:55	-8.3	-8.3	-8.3	86	-10.2	0	3	180	0.0	1007.9	0	0.000	0.0
20100216 04:00	-8.3	-8.3	-8.3	86	-10.2	2	3	180	0.0	1007.8	0	0.000	0.0
20100216 04:05	-8.4	-8.4	-8.4	87	-10.2	0	2	180	0.0	1007.8	0	0.000	0.0
20100216 04:10	-8.4	-8.4	-8.4	87	-10.2	0	0	-100000	0.0	1007.9	0	0.000	0.0
20100216 04:15	-8.6	-8.6	-8.6	86	-10.5	0	0	-100000	0.0	1007.9	0	0.000	0.0
20100216 04:20	-8.7	-8.7	-8.7	87	-10.4	0	0	-100000	0.0	1007.8	0	0.000	0.0
20100216 04:25	-8.8	-8.8	-8.8	87	-10.5	0	0	-100000	0.0	1007.8	0	0.000	0.0
20100216 04:30	-8.9	-8.9	-8.9	86	-10.8	0	0	-100000	0.0	1007.9	0	0.000	0.0
20100216 04:35	-9.1	-9.1	-9.1	86	-11.0	0	0	-100000	0.0	1007.8	0	0.000	0.0
20100216 04:40	-9.2	-9.2	-9.2	86	-11.1	0	0	-100000	0.0	1007.8	0	0.000	0.0
20100216 04:45	-9.3	-9.3	-9.3	86	-11.2	0	0	-100000	0.0	1007.9	0	0.000	0.0
20100216 04:50	-9.4	-9.4	-9.4	86	-11.3	0	0	-100000	0.0	1007.8	0	0.000	0.0
20100216 04:55	-9.6	-9.6	-9.6	85	-11.6	0	0	-100000	0.0	1007.8	0	0.000	0.0
20100216 05:00	-9.7	-9.7	-9.7	85	-11.8	0	0	-100000	0.0	1007.8	0	0.000	0.0
20100216 05:05	-9.8	-9.8	-9.8	85	-11.9	0	0	-100000	0.0	1008.0	0	0.000	0.0
20100216 05:10	-10.0	-10.0	-10.0	85	-12.0	0	0	-100000	0.0	1008.0	0	0.000	0.0
20100216 05:15	-10.2	-10.2	-10.2	85	-12.2	0	0	-100000	0.0	1007.9	0	0.000	0.0
20100216 05:20	-10.3	-10.3	-10.3	85	-12.4	0	0	-100000	0.0	1007.9	0	0.000	0.0
20100216 05:25	-10.4	-10.4	-10.4	85	-12.4	0	0	-100000	0.0	1007.9	0	0.000	0.0
20100216 05:30	-10.5	-10.5	-10.5	86	-12.4	0	0	-100000	0.0	1008.0	0	0.000	0.0
20100216 05:35	-10.5	-10.5	-10.5	86	-12.4	0	0	-100000	0.0	1007.9	0	0.000	0.0
20100216 05:40	-10.5	-10.5	-10.5	86	-12.4	0	2	180	0.0	1007.9	0	0.000	0.0
20100216 05:45	-10.5	-10.5	-10.5	86	-12.4	0	0	-100000	0.0	1007.9	0	0.000	0.0
20100216 05:50	-10.5	-10.5	-10.5	86	-12.4	0	0	-100000	0.0	1007.9	0	0.000	0.0
20100216 05:55	-10.6	-10.6	-10.6	86	-12.4	0	0	-100000	0.0	1007.7	0	0.000	0.0
20100216 06:00	-10.6	-10.6	-10.6	86	-12.4	0	2	180	0.0	1007.7	0	0.000	0.0
20100216 06:05	-10.6	-10.6	-10.6	87	-12.3	0	2	180	0.0	1007.6	0	0.000	0.0
20100216 06:10	-10.6	-10.6	-10.6	86	-12.4	0	3	180	0.0	1007.6	0	0.000	0.0
20100216 06:15	-10.6	-10.6	-10.6	87	-12.3	0	2	180	0.0	1007.6	0	0.000	0.0
20100216 06:20	-10.7	-10.7	-10.7	87	-12.4	0	0	-100000	0.0	1007.6	0	0.000	0.0
20100216 06:25	-10.7	-10.7	-10.7	87	-12.4	0	0	-100000	0.0	1007.5	0	0.000	0.0
20100216 06:30	-10.7	-10.7	-10.7	87	-12.5	0	0	-100000	0.0	1007.5	0	0.000	0.0
20100216 06:35	-10.8	-10.8	-10.8	87	-12.5	0	0	-100000	0.0	1007.5	0	0.000	0.0
20100216 06:40	-10.8	-10.8	-10.8	87	-12.6	0	0	-100000	0.0	1007.6	0	0.000	0.0
20100216 06:45	-11.0	-11.0	-11.0	86	-12.9	0	0	-100000	0.0	1007.7	0	0.000	0.0
20100216 06:50	-11.1	-11.1	-11.1	86	-12.9	0	0	-100000	0.0	1007.7	0	0.000	0.0
20100216 06:55	-11.2	-11.2	-11.2	86	-13.0	0	0	-100000	0.0	1007.7	0	0.000	0.0
20100216 07:00	-11.3	-11.3	-11.3	85	-13.3	0	0	-100000	0.0	1007.7	0	0.000	0.0
20100216 07:05	-11.5	-11.5	-11.5	85	-13.5	0	0	-100000	0.0	1007.6	0	0.000	0.0
20100216 07:10	-11.6	-11.6	-11.6	86	-13.4	0	0	-100000	0.0	1007.7	0	0.000	0.0
20100216 07:15	-11.6	-11.6	-11.6	86	-13.5	2	3	180	0.0	1007.5	0	0.000	0.0
20100216 07:20	-11.6	-11.6	-11.6	86	-13.5	2	5	180	0.0	1007.6	0	0.000	0.0
20100216 07:25	-11.7	-11.7	-11.7	86	-13.5	0	3	180	0.0	1007.6	5	0.000	0.0
20100216 07:30	-11.6	-11.6	-11.6	86	-13.5	0	0	-100000	0.0	1007.6	8	0.000	0.0
20100216 07:35	-11.8	-11.8	-11.8	85	-13.8	0	0	-100000	0.0	1007.6	11	0.000	0.0
20100216 07:40	-12.5	-12.5	-12.5	83	-14.8	0	0	-100000	0.0	1007.8	14	0.000	0.0
20100216 07:45	-12.9	-12.9	-12.9	84	-15.1	0	0	-100000	0.0	1007.9	17	0.000	0.0
20100216 07:50	-13.2	-13.2	-13.2	84	-15.3	0	0	-100000	0.0	1008.1	20	0.000	0.0
20100216 07:55	-13.3	-13.3	-13.3	85	-15.3	0	0	-100000	0.0	1008.3	23	0.000	0.0
20100216 08:00	-13.2	-13.2	-13.2	85	-15.1	0	0	-100000	0.0	1008.2	26	0.000	0.0
20100216 08:05	-13.0	-13.0	-13.0	86	-14.8	0	0	-100000	0.0	1008.1	29	0.000	0.0
20100216 08:10	-12.7	-12.7	-12.7	87	-14.4	0	0	-100000	0.0	1008.0	32	0.000	0.0
20100216 08:15	-12.3	-12.3	-12.3	87	-14.0	0	0	-100000	0.0	1008.0	34	0.000	0.0
20100216 08:20	-12.0	-12.0	-12.0	87	-13.7	0	0	-100000	0.0	1008.0	36	0.000	0.0
20100216 08:25	-11.8	-11.8	-11.8	87	-13.5	0	0	-100000	0.0	1007.9	38	0.000	0.0
20100216 08:30	-11.7	-11.7	-11.7	86	-13.5	0	0	-100000	0.0	1007.8	40	0.000	0.0
20100216 08:35	-11.7	-11.7	-11.7	86	-13.5	0	0	-100000	0.0	1007.9	42	0.000	0.0
20100216 08:40	-11.9	-11.9	-11.9	84	-14.0	0	0	-100000	0.0	1007.8	45	0.000	0.0
20100216 08:45	-12.1	-12.1	-12.1	85	-14.1	0	2	180	0.0	1007.9	47	0.000	0.0
20100216 08:50	-11.8	-11.8	-11.8	86	-13.7	0	2	180	0.0	1007.8	48	0.000	0.0
20100216 08:55	-11.6	-11.6	-11.6	87	-13.3	0	0	-100000	0.0	1007.7	50	0.000	0.0
20100216 09:00	-11.3	-11.3	-11.3	87	-13.0	0	0	-100000	0.0	1007.8	53	0.000	0.0
20100216 09:05	-10.9	-10.9	-10.9	88	-12.5	0	0	-100000	0.0	1007.8	55	0.000	0.3
20100216 09:10	-10.9	-10.9	-10.9	86	-12.8	0	0	-100000	0.0	1007.8	56	0.000	0.5
20100216 09:15	-11.1	-11.1	-11.1	85	-13.1	0	2	180	0.0	1007.9	60	0.000	0.6
20100216 09:20	-11.1	-11.1	-11.1	85	-13.1	0	0	-100000	0.0	1007.8	63	0.000	0.6
20100216 09:25	-10.9	-10.9	-10.9	87	-12.7	0	0	-100000	0.0	1007.8	63	0.000	0.7
20100216 09:30	-10.6	-10.6	-10.6	87	-12.3	0	0	-100000	0.0	1007.6	64	0.000	0.7
20100216 09:35	-10.3	-10.3	-10.3	88	-11.9	0	0	-100000	0.0	1007.6	66	0.000	0.8
20100216 09:40	-10.1	-10.1	-10.1	88	-11.7	0	0	-100000	0.0	1007.6	67	0.000	0.8
20100216 09:45	-9.8	-9.8	-9.8	87	-11.6	2	5	180	0.0	1007.6	67	0.000	0.8
20100216 09:50	-9.6	-9.6	-9.6	88	-11.2	3	6	180	0.0	1007.4	68	0.000	0.9
20100216 09:55	-9.3	-9.3	-9.3	88	-10.9	3	5	180	0.0	1007.4	67	0.000	0.9
20100216 10:00	-9.1	-9.1	-9.1	88	-10.7	2	3	180	0.0	1007.3	67	0.025	1.0
20100216 10:05	-8.8	-8.8	-8.8	88	-10.5	0	5	180	0.0	1007.3	67	0.000	1.0
20100216 10:10	-8.6	-8.6	-8.6	88	-10.2	3	5	180	0.0	1007.1	67	0.000	1.1
20100216 10:15	-8.3	-8.3	-8.3	87	-10.0	3	5	180	0.0	1007.1	67	0.000	1.1
20100216 10:20	-8.0	-8.0	-8.0	87	-9.8	2	5	180	0.0	1007.0	69	0.000	1.2
20100216 10:25	-7.8	-7.8	-7.8	86	-9.7	2	5	180	0.0	1007.1	69	0.000	1.2
20100216 10:30	-7.5	-7.5	-7.5	86	-9.4	2	5	180	0.0	1007.1	70	0.000	1.3
20100216 10:35	-7.3	-7.3	-7.3	84	-9.6	2	5	180	0.0	1007.0	70	0.000	1.3
20100216 10:40	-7.6	-7.6	-7.6	89	-9.0	0	3	180	0.0	1007.1	73	0.000	1.3
20100216 10:45	-7.7	-7.7	-7.7	82	-10.2	2	5	180	0.0	1007.2	75	0.000	1.4
20100216 10:50	-7.6	-7.6	-7.6	83	-9.9	3	5	180	0.0	1007.2	76	0.000	1.4
20100216 10:55	-7.3	-7.3	-7.3	83	-9.7	3	5	180	0.0	1007.0	78	0.000	1.5
20100216 11:00	-6.8	-6.8	-6.8	83	-9.2	2	5	180	0.0	1007.0	94	0.025	1.5
20100216 11:05	-6.7	-6.7	-6.7	83	-9.1	3	5	180	0.0	1006.9	423	0.000	1.6
20100216 11:10	-6.3	-6.3	-6.3	82	-8.9	3	6	180	0.0	1006.9	428	0.000	1.9
20100216 11:15	-6.2	-6.2	-6.2	81	-8.9	3	6	180	0.0	1006.9	435	0.000	2.0
20100216 11:20	-6.0	-6.0	-6.0	81	-8.7	3	5	180	0.0	1007.0	441	0.000	2.0
20100216 11:25	-5.8	-5.8	-5.8	80	-8.7	3	5	180	0.0	1006.8	446	0.000	2.1
20100216 11:30	-5.7	-5.7	-5.7	80	-8.6	5	6	180	0.0	1006.7	453	0.000	2.1
20100216 11:35	-5.6	-5.6	-5.6	79	-8.6	5	8	180	0.0	1006.7	457	0.000	2.1
20100216 11:40	-5.6	-5.6	-5.6	79	-8.6	5	8	22	0.0	1006.6	462	0.000	2.2
20100216 11:45	-5.6	-8.6	-5.6	80	-8.4	6	10	22	0.0	1006.6	467	0.000	2.2
20100216 11:50	-5.4	-8.4	-5.4	79	-8.4	6	10	22	0.0	1006.5	471	0.000	2.2
20100216 11:55	-5.4	-5.4	-5.4	79	-8.5	5	10	22	0.0	1006.6	474	0.000	2.2
20100216 12:00	-5.2	-5.2	-5.2	80	-8.1	3	8	22	0.0	1006.5	477	0.127	2.3
20100216 12:05	-4.9	-4.9	-4.9	79	-8.0	5	8	22	0.0	1006.2	480	0.000	2.3
20100216 12:10	-4.7	-7.6	-4.7	78	-8.0	6	10	22	0.0	1006.2	484	0.000	2.3
20100216 12:15	-4.6	-4.6	-4.6	79	-7.7	5	6	22	0.0	1006.1	484	0.000	2.3
20100216 12:20	-4.6	-7.4	-4.6	78	-7.8	6	11	22	0.0	1006.1	486	0.000	2.3
20100216 12:25	-4.6	-7.5	-4.6	78	-7.9	6	10	22	0.0	1006.1	487	0.000	2.3
20100216 12:30	-4.5	-8.0	-4.5	78	-7.7	8	11	22	0.0	1006.0	488	0.000	2.4
20100216 12:35	-4.5	-8.6	-4.5	79	-7.6	10	14	22	0.0	1005.9	487	0.000	2.4
20100216 12:40	-4.4	-7.3	-4.4	79	-7.5	6	13	45	0.0	1005.9	487	0.000	2.4
20100216 12:45	-4.1	-4.1	-4.1	79	-7.2	5	8	45	0.0	1005.6	487	0.000	2.3
20100216 12:50	-3.9	-3.9	-3.9	78	-7.2	5	8	68	0.0	1005.6	485	0.000	2.3
20100216 12:55	-4.0	-6.8	-4.0	78	-7.3	6	10	68	0.0	1005.5	484	0.000	2.3
20100216 13:00	-3.9	-3.9	-3.9	78	-7.2	5	10	45	0.0	1005.4	483	0.152	2.3
20100216 13:05	-3.8	-6.5	-3.8	78	-7.0	6	13	22	0.0	1005.4	481	0.000	2.3
20100216 13:10	-3.7	-7.6	-3.7	78	-6.9	10	14	22	0.0	1005.3	478	0.000	2.3
20100216 13:15	-3.7	-7.0	-3.7	78	-6.9	8	16	22	0.0	1005.4	475	0.000	2.2
20100216 13:20	-3.4	-3.4	-3.4	78	-6.7	5	8	68	0.0	1005.4	471	0.000	2.2
20100216 13:25	-3.4	-6.2	-3.4	77	-6.9	6	8	68	0.0	1005.4	467	0.000	2.2
20100216 13:30	-3.3	-6.6	-3.3	77	-6.7	8	16	68	0.0	1005.4	465	0.000	2.2
20100216 13:35	-3.4	-8.2	-3.4	77	-6.9	13	16	22	0.0	1005.4	461	0.000	2.1
20100216 13:40	-3.4	-6.1	-3.4	77	-6.8	6	14	22	0.0	1005.4	454	0.000	2.1
20100216 13:45	-3.3	-3.3	-3.3	77	-6.7	5	8	68	0.0	1005.3	450	0.000	2.0
20100216 13:50	-3.2	-3.2	-3.2	77	-6.6	5	8	68	0.0	1005.3	443	0.000	2.0
20100216 13:55	-2.9	-2.9	-2.9	76	-6.6	5	8	68	0.0	1005.2	437	0.000	1.9
20100216 14:00	-2.9	-2.9	-2.9	76	-6.6	5	8	68	0.0	1005.2	433	0.152	1.9
20100216 14:05	-2.8	-2.8	-2.8	76	-6.5	5	8	68	0.0	1005.2	428	0.000	1.8
20100216 14:10	-2.7	-5.3	-2.7	75	-6.5	6	11	68	0.0	1005.2	422	0.000	1.8
20100216 14:15	-2.8	-5.4	-2.8	74	-6.8	6	11	68	0.0	1005.2	414	0.000	1.7
20100216 14:20	-2.8	-5.4	-2.8	74	-6.8	6	10	45	0.0	1005.1	406	0.000	1.6
20100216 14:25	-2.8	-5.4	-2.8	75	-6.6	6	10	45	0.0	1005.0	399	0.000	1.6
20100216 14:30	-2.7	-5.3	-2.7	74	-6.7	6	10	68	0.0	1004.9	389	0.000	1.5
20100216 14:35	-2.7	-2.7	-2.7	74	-6.7	5	10	68	0.0	1005.0	380	0.000	1.4
20100216 14:40	-2.7	-5.3	-2.7	74	-6.6	6	10	45	0.0	1004.9	372	0.000	1.4
20100216 14:45	-2.6	-2.6	-2.6	75	-6.4	5	8	45	0.0	1004.8	365	0.000	1.3
20100216 14:50	-2.4	-5.0	-2.4	74	-6.4	6	10	68	0.0	1004.7	356	0.000	1.3
20100216 14:55	-2.4	-2.4	-2.4	74	-6.4	5	10	68	0.0	1004.6	346	0.000	1.2
20100216 15:00	-2.3	-2.3	-2.3	74	-6.3	5	8	68	0.0	1004.6	338	0.127	1.2
20100216 15:05	-2.4	-4.9	-2.4	73	-6.6	6	8	68	0.0	1004.6	329	0.000	1.1
20100216 15:10	-2.4	-2.4	-2.4	75	-6.3	5	8	68	0.0	1004.6	318	0.000	1.0
20100216 15:15	-2.4	-5.0	-2.4	75	-6.3	6	10	68	0.0	1004.5	308	0.000	1.0
20100216 15:20	-2.4	-5.0	-2.4	75	-6.3	6	10	68	0.0	1004.5	299	0.000	0.9
20100216 15:25	-2.3	-2.3	-2.3	75	-6.2	5	6	45	0.0	1004.5	285	0.000	0.8
20100216 15:30	-2.3	-2.3	-2.3	75	-6.1	5	6	45	0.0	1004.5	270	0.000	0.8
20100216 15:35	-2.2	-4.7	-2.2	74	-6.2	6	10	22	0.0	1004.5	260	0.000	0.7
20100216 15:40	-2.3	-5.5	-2.3	74	-6.3	8	14	22	0.0	1004.5	247	0.000	0.7
20100216 15:45	-2.4	-5.6	-2.4	75	-6.3	8	14	22	0.0	1004.5	232	0.000	0.6
20100216 15:50	-2.4	-2.4	-2.4	75	-6.3	5	6	22	0.0	1004.6	215	0.000	0.6
20100216 15:55	-2.5	-2.5	-2.5	75	-6.3	5	8	68	0.0	1004.5	202	0.000	0.5
20100216 16:00	-2.6	-2.6	-2.6	75	-6.4	5	6	68	0.0	1004.4	187	0.102	0.5
20100216 16:05	-2.7	-2.7	-2.7	75	-6.5	5	6	68	0.0	1004.5	171	0.000	0.1
20100216 16:10	-2.8	-2.8	-2.8	75	-6.6	5	8	45	0.0	1004.4	159	0.000	0.0
20100216 16:15	-2.8	-2.8	-2.8	76	-6.4	3	6	45	0.0	1004.4	146	0.000	0.0
20100216 16:20	-2.8	-2.8	-2.8	76	-6.5	3	5	45	0.0	1004.4	130	0.000	0.0
20100216 16:25	-2.9	-2.9	-2.9	76	-6.6	3	6	45	0.0	1004.3	116	0.000	0.0
20100216 16:30	-2.9	-2.9	-2.9	76	-6.6	3	5	45	0.0	1004.3	102	0.000	0.0
20100216 16:35	-2.9	-2.9	-2.9	76	-6.6	3	6	45	0.0	1004.2	90	0.000	0.0
20100216 16:40	-3.1	-3.1	-3.1	76	-6.7	3	5	45	0.0	1004.2	77	0.000	0.0
20100216 16:45	-3.2	-3.2	-3.2	76	-6.8	3	6	45	0.0	1004.2	60	0.000	0.0
20100216 16:50	-3.4	-3.4	-3.4	77	-6.9	3	8	68	0.0	1004.3	47	0.000	0.0
20100216 16:55	-3.6	-3.6	-3.6	78	-6.9	3	6	68	0.0	1004.4	41	0.000	0.0
20100216 17:00	-3.7	-3.7	-3.7	78	-7.0	3	6	68	0.0	1004.3	31	0.025	0.0
20100216 17:05	-3.8	-3.8	-3.8	78	-7.0	3	6	68	0.0	1004.4	27	0.000	0.0
20100216 17:10	-3.9	-3.9	-3.9	79	-7.0	3	5	68	0.0	1004.4	22	0.000	0.0
20100216 17:15	-4.0	-4.0	-4.0	79	-7.1	2	5	68	0.0	1004.4	18	0.000	0.0
20100216 17:20	-4.1	-4.1	-4.1	80	-7.0	2	3	68	0.0	1004.3	14	0.000	0.0
20100216 17:25	-4.2	-4.2	-4.2	80	-7.1	0	2	68	0.0	1004.3	11	0.000	0.0
20100216 17:30	-4.3	-4.3	-4.3	80	-7.3	2	6	68	0.0	1004.4	7	0.000	0.0
20100216 17:35	-4.4	-4.4	-4.4	81	-7.2	3	8	68	0.0	1004.5	3	0.000	0.0
20100216 17:40	-4.6	-4.6	-4.6	81	-7.3	2	5	90	0.0	1004.5	0	0.000	0.0
20100216 17:45	-4.7	-4.7	-4.7	81	-7.4	2	5	90	0.0	1004.4	0	0.000	0.0
20100216 17:50	-4.8	-4.8	-4.8	81	-7.6	3	6	90	0.0	1004.5	0	0.000	0.0
20100216 17:55	-4.9	-4.9	-4.9	81	-7.7	0	3	90	0.0	1004.5	0	0.000	0.0
20100216 18:00	-5.1	-5.1	-5.1	82	-7.6	2	5	90	0.0	1004.5	0	0.000	0.0
20100216 18:05	-5.1	-5.1	-5.1	83	-7.5	3	6	90	0.0	1004.5	0	0.000	0.0
20100216 18:10	-5.1	-5.1	-5.1	83	-7.5	3	6	90	0.0	1004.5	0	0.000	0.0
20100216 18:15	-5.2	-5.2	-5.2	83	-7.6	3	5	90	0.0	1004.5	0	0.000	0.0
20100216 18:20	-5.4	-5.4	-5.4	83	-7.8	2	3	90	0.0	1004.6	0	0.000	0.0
20100216 18:25	-5.6	-5.6	-5.6	83	-8.0	2	3	90	0.0	1004.6	0	0.000	0.0
20100216 18:30	-5.7	-5.7	-5.7	83	-8.1	3	5	90	0.0	1004.5	0	0.000	0.0
20100216 18:35	-5.8	-5.8	-5.8	84	-8.1	5	8	90	0.0	1004.4	0	0.000	0.0
20100216 18:40	-6.1	-6.1	-6.1	84	-8.3	3	5	90	0.0	1004.5	0	0.000	0.0
20100216 18:45	-6.2	-6.2	-6.2	84	-8.4	3	5	90	0.0	1004.5	0	0.000	0.0
20100216 18:50	-6.3	-6.3	-6.3	84	-8.6	0	3	90	0.0	1004.5	0	0.000	0.0
20100216 18:55	-6.6	-6.6	-6.6	85	-8.7	0	2	90	0.0	1004.5	0	0.000	0.0
20100216 19:00	-6.7	-6.7	-6.7	85	-8.8	0	3	90	0.0	1004.5	0	0.000	0.0
20100216 19:05	-6.8	-6.8	-6.8	86	-8.7	2	5	90	0.0	1004.9	0	0.000	0.0
20100216 19:10	-6.8	-6.8	-6.8	86	-8.7	0	2	90	0.0	1004.9	0	0.000	0.0
20100216 19:15	-6.8	-6.8	-6.8	86	-8.8	0	0	-100000	0.0	1004.8	0	0.000	0.0
20100216 19:20	-6.8	-6.8	-6.8	86	-8.8	0	0	-100000	0.0	1004.8	0	0.000	0.0
20100216 19:25	-6.9	-6.9	-6.9	86	-8.9	0	0	-100000	0.0	1004.8	0	0.000	0.0
20100216 19:30	-6.9	-6.9	-6.9	87	-8.7	0	3	90	0.0	1004.8	0	0.000	0.0
20100216 19:35	-6.8	-6.8	-6.8	88	-8.4	2	3	90	0.0	1004.7	0	0.000	0.0
20100216 19:40	-6.8	-6.8	-6.8	87	-8.6	2	3	90	0.0	1004.7	0	0.000	0.0
20100216 19:45	-7.0	-7.0	-7.0	87	-8.8	2	3	90	0.0	1004.7	0	0.000	0.0
20100216 19:50	-7.2	-7.2	-7.2	87	-9.0	3	5	90	0.0	1004.8	0	0.000	0.0
20100216 19:55	-7.2	-7.2	-7.2	88	-8.8	2	5	90	0.0	1004.8	0	0.000	0.0
20100216 20:00	-7.2	-7.2	-7.2	88	-8.8	0	3	90	0.0	1004.8	0	0.000	0.0
20100216 20:05	-7.2	-7.2	-7.2	88	-8.8	2	3	90	0.0	1004.5	0	0.000	0.0
20100216 20:10	-7.2	-7.2	-7.2	88	-8.9	0	0	-100000	0.0	1004.5	0	0.000	0.0
20100216 20:15	-7.3	-7.3	-7.3	88	-8.9	0	3	90	0.0	1004.4	0	0.000	0.0
20100216 20:20	-7.3	-7.3	-7.3	88	-9.0	0	0	-100000	0.0	1004.5	0	0.000	0.0
20100216 20:25	-7.4	-7.4	-7.4	88	-9.0	0	0	-100000	0.0	1004.3	0	0.000	0.0
20100216 20:30	-7.4	-7.4	-7.4	88	-9.1	0	0	-100000	0.0	1004.3	0	0.000	0.0
20100216 20:35	-7.6	-7.6	-7.6	87	-9.4	0	0	-100000	0.0	1004.3	0	0.000	0.0
20100216 20:40	-8.1	-8.1	-8.1	86	-10.0	0	0	-100000	0.0	1004.3	0	0.000	0.0
20100216 20:45	-8.6	-8.6	-8.6	86	-10.5	0	0	-100000	0.0	1004.5	0	0.000	0.0
20100216 20:50	-8.8	-8.8	-8.8	87	-10.5	0	3	90	0.0	1004.4	0	0.000	0.0
20100216 20:55	-8.8	-8.8	-8.8	87	-10.6	2	3	90	0.0	1004.4	0	0.000	0.0
20100216 21:00	-8.6	-8.6	-8.6	89	-10.0	0	3	90	0.0	1004.4	0	0.000	0.0
20100216 21:05	-8.6	-8.6	-8.6	88	-10.2	2	3	90	0.0	1004.1	0	0.000	0.0
20100216 21:10	-8.8	-8.8	-8.8	88	-10.4	2	3	90	0.0	1004.1	0	0.000	0.0
20100216 21:15	-8.8	-8.8	-8.8	88	-10.4	0	0	-100000	0.0	1004.1	0	0.000	0.0
20100216 21:20	-8.6	-8.6	-8.6	89	-10.1	0	0	-100000	0.0	1004.1	0	0.000	0.0
20100216 21:25	-8.4	-8.4	-8.4	89	-9.9	0	0	-100000	0.0	1004.1	0	0.000	0.0
20100216 21:30	-8.3	-8.3	-8.3	89	-9.8	0	0	-100000	0.0	1004.0	0	0.000	0.0
20100216 21:35	-8.2	-8.2	-8.2	89	-9.7	0	0	-100000	0.0	1004.0	0	0.000	0.0
20100216 21:40	-8.0	-8.0	-8.0	90	-9.3	0	0	-100000	0.0	1003.9	0	0.000	0.0
20100216 21:45	-7.9	-7.9	-7.9	89	-9.4	0	0	-100000	0.0	1003.8	0	0.000	0.0
20100216 21:50	-8.1	-8.1	-8.1	89	-9.5	0	0	-100000	0.0	1003.7	0	0.000	0.0
20100216 21:55	-8.2	-8.2	-8.2	89	-9.7	0	0	-100000	0.0	1003.7	0	0.000	0.0
20100216 22:00	-8.2	-8.2	-8.2	89	-9.7	0	3	90	0.0	1003.7	0	0.000	0.0
20100216 22:05	-8.2	-8.2	-8.2	89	-9.7	0	3	90	0.0	1003.4	0	0.000	0.0
20100216 22:10	-8.2	-8.2	-8.2	89	-9.7	3	5	90	0.0	1003.3	0	0.000	0.0
20100216 22:15	-7.9	-7.9	-7.9	89	-9.4	3	5	90	0.0	1003.2	0	0.000	0.0
20100216 22:20	-7.7	-7.7	-7.7	90	-9.1	3	5	90	0.0	1003.0	0	0.000	0.0
20100216 22:25	-7.5	-7.5	-7.5	90	-8.9	3	5	90	0.0	1003.0	0	0.000	0.0
20100216 22:30	-7.4	-7.4	-7.4	90	-8.8	2	3	90	0.0	1002.8	0	0.000	0.0
20100216 22:35	-7.4	-7.4	-7.4	90	-8.7	0	3	90	0.0	1002.7	0	0.000	0.0
20100216 22:40	-7.3	-7.3	-7.3	90	-8.7	2	5	90	0.0	1002.7	0	0.000	0.0
20100216 22:45	-7.3	-7.3	-7.3	90	-8.7	2	5	90	0.0	1002.6	0	0.000	0.0
20100216 22:50	-7.3	-7.3	-7.3	90	-8.6	2	3	90	0.0	1002.6	0	0.000	0.0
20100216 22:55	-7.2	-7.2	-7.2	90	-8.6	0	3	90	0.0	1002.5	0	0.000	0.0
20100216 23:00	-7.2	-7.2	-7.2	90	-8.6	0	0	-100000	0.0	1002.6	0	0.000	0.0
20100216 23:05	-7.3	-7.3	-7.3	89	-8.8	0	0	-100000	0.0	1002.2	0	0.000	0.0
20100216 23:10	-7.4	-7.4	-7.4	89	-8.9	0	0	-100000	0.0	1002.2	0	0.000	0.0
20100216 23:15	-7.4	-7.4	-7.4	89	-8.9	0	0	-100000	0.0	1002.1	0	0.000	0.0
20100216 23:20	-7.4	-7.4	-7.4	89	-8.9	0	2	90	0.0	1002.0	0	0.000	0.0
20100216 23:25	-7.4	-7.4	-7.4	89	-8.9	0	2	90	0.0	1002.0	0	0.000	0.0
20100216 23:30	-7.4	-7.4	-7.4	89	-8.9	0	0	-100000	0.0	1002.0	0	0.000	0.0
20100216 23:35	-7.4	-7.4	-7.4	89	-8.9	0	0	-100000	0.0	1001.9	0	0.000	0.0
20100216 23:40	-7.3	-7.3	-7.3	89	-8.8	0	0	-100000	0.0	1001.9	0	0.000	0.0
20100216 23:45	-7.3	-7.3	-7.3	89	-8.8	0	0	-100000	0.0	1001.9	0	0.000	0.0
20100216 23:50	-7.3	-7.3	-7.3	89	-8.8	0	0	-100000	0.0	1001.8	0	0.000	0.0
20100216 23:55	-7.3	-7.3	-7.3	89	-8.8	0	0	-100000	0.0	1001.8	0	0.000	0.0



Please note the license to use and transfer of this data:
http://creativecommons.org/licenses/by-nc-sa/3.0/deed.en

Bitte beachten sie die Lizenz zur Verwertung und Weitergabe der Daten:
http://creativecommons.org/licenses/by-nc-sa/3.0/deed.de

zurück zur Übersicht der Archivdaten (Monats und Tagesdaten)

Cookies helfen bei der Bereitstellung von Inhalten. Durch die Nutzung dieser Seiten erklärst du dich damit einverstanden, dass Cookies auf deinem Rechner gespeichert werden. Weitere Information